Terminal Aerodrome Forecast
Issued by NWS Twin Cities, MN

Home | Current Version | Previous Version | Text Only | Print | Product List | Glossary Off
Versions: 1 2 3 4 5 6 7 8 9 10 11 12 13 14 15 16 17 18 19 20 21 22 23 24 25 26

000
FTUS43 KMPX 261120
TAFMSP
TAF
KMSP 261120Z 2612/2718 26004KT P6SM SKC
     FM261800 19004KT P6SM SCT250
     FM270000 16005KT P6SM SCT070 BKN150
     FM271000 12003KT 6SM -RA SCT025 OVC050
     FM271500 12006KT P6SM OVC025=

USA.gov is the U.S. government's official web portal to all federal, state and local government web resources and services.